Time;durP1;ratioP1;P1;durP2;ratioP2;P2;SDS_P1;SDS_P2;PMS_P1;PMS_P2;Temp;Humidity;BMP_temperature;BMP_pressure;BME280_temperature;BME280_humidity;BME280_pressure;Samples;Min_cycle;Max_cycle;Signal;HPM_P1;HPM_P2
2021/03/11 16:43:54;;;;;;;14.73;8.45;;;-1.30;69.70;;;;;;5070747;28;20390;-83
2021/03/11 16:46:19;;;;;;;25.77;8.57;;;-1.30;69.40;;;;;;5069727;28;20041;-83
2021/03/11 16:48:45;;;;;;;18.05;9.63;;;-1.30;69.60;;;;;;5068810;28;20029;-85
2021/03/11 16:51:11;;;;;;;17.45;8.23;;;-1.30;69.60;;;;;;5069572;28;20025;-85
2021/03/11 16:53:36;;;;;;;18.27;9.93;;;-1.40;69.90;;;;;;5069543;28;20132;-85
2021/03/11 16:56:03;;;;;;;24.33;12.18;;;-1.40;69.80;;;;;;5070912;28;20021;-86
2021/03/11 16:58:28;;;;;;;18.45;10.00;;;-1.40;69.30;;;;;;5071046;28;20025;-87
2021/03/11 17:00:54;;;;;;;19.60;11.20;;;-1.40;69.30;;;;;;5051782;28;20021;-86
2021/03/11 17:03:20;;;;;;;22.27;11.57;;;-1.40;69.30;;;;;;5049721;28;20458;-87
2021/03/11 17:05:46;;;;;;;21.48;13.02;;;-1.40;69.30;;;;;;5050099;28;20427;-88
2021/03/11 17:08:12;;;;;;;27.63;14.60;;;-1.50;69.10;;;;;;5050784;28;20013;-89
2021/03/11 17:10:38;;;;;;;26.85;15.38;;;-1.50;69.30;;;;;;5049463;28;20493;-88
2021/03/11 17:13:04;;;;;;;29.73;17.33;;;-1.50;69.30;;;;;;5049408;28;20094;-85
2021/03/11 17:15:31;;;;;;;42.53;21.73;;;-1.50;69.40;;;;;;5066049;28;20518;-86
2021/03/11 17:17:56;;;;;;;37.70;21.20;;;-1.50;69.20;;;;;;5050593;28;20017;-86
2021/03/11 17:20:22;;;;;;;42.95;23.40;;;-1.50;69.20;;;;;;5050478;28;20106;-86
2021/03/11 17:22:49;;;;;;;30.63;16.75;;;-1.60;68.90;;;;;;5065955;28;20079;-86
2021/03/11 17:25:15;;;;;;;29.63;16.92;;;-1.50;69.30;;;;;;5049450;28;20109;-86
2021/03/11 17:27:42;;;;;;;27.08;15.07;;;-1.60;68.70;;;;;;5049744;28;20030;-86
2021/03/11 17:30:10;;;;;;;32.85;14.20;;;-1.60;69.10;;;;;;5065856;28;20091;-86
2021/03/11 17:32:36;;;;;;;28.33;14.20;;;-1.60;69.30;;;;;;5048499;28;20029;-86
2021/03/11 17:35:08;;;;;;;28.85;13.68;;;-1.60;69.10;;;;;;5049461;28;20360;-86
2021/03/11 17:37:33;;;;;;;20.27;12.43;;;-1.60;69.50;;;;;;5068541;28;20025;-85
2021/03/11 17:39:59;;;;;;;26.40;13.73;;;-1.60;69.70;;;;;;5068642;28;20028;-84
2021/03/11 17:42:27;;;;;;;24.90;12.85;;;-1.60;69.90;;;;;;5068205;28;20109;-86
2021/03/11 17:44:54;;;;;;;26.65;14.75;;;-1.60;70.00;;;;;;5069662;28;20048;-86
2021/03/11 17:47:20;;;;;;;29.60;15.73;;;-1.70;69.70;;;;;;5068522;28;20028;-87
2021/03/11 17:49:46;;;;;;;33.78;16.95;;;-1.70;69.70;;;;;;5068538;28;20029;-87
2021/03/11 17:52:11;;;;;;;34.90;16.88;;;-1.70;70.10;;;;;;5069516;28;20032;-87
2021/03/11 17:54:37;;;;;;;29.13;15.35;;;-1.80;70.40;;;;;;5060007;28;20052;-87
2021/03/11 17:57:03;;;;;;;30.17;16.10;;;-1.80;70.00;;;;;;5056169;28;20025;-86
2021/03/11 17:59:29;;;;;;;36.88;17.15;;;-1.80;70.30;;;;;;5055192;28;20025;-87
2021/03/11 18:01:54;;;;;;;28.77;15.20;;;-1.80;70.20;;;;;;5056290;28;20375;-87
2021/03/11 18:04:20;;;;;;;29.75;14.98;;;-1.90;70.20;;;;;;5054756;28;20109;-88
2021/03/11 18:06:46;;;;;;;27.58;14.68;;;-1.90;69.90;;;;;;5055965;28;20045;-87
2021/03/11 18:09:11;;;;;;;27.23;13.95;;;-1.90;70.30;;;;;;5055942;28;20076;-85
2021/03/11 18:11:37;;;;;;;36.78;15.45;;;-1.90;70.80;;;;;;5055529;28;20025;-84
2021/03/11 18:14:04;;;;;;;25.48;13.55;;;-1.90;70.90;;;;;;5055707;28;20035;-85
2021/03/11 18:16:30;;;;;;;29.63;14.55;;;-1.90;71.10;;;;;;5055851;28;20075;-84
2021/03/11 18:18:56;;;;;;;27.75;14.05;;;-2.00;70.80;;;;;;5055573;28;20031;-84
2021/03/11 18:21:22;;;;;;;27.73;14.18;;;-1.90;71.40;;;;;;5054120;28;20116;-83
2021/03/11 18:23:47;;;;;;;27.42;13.95;;;-2.00;71.60;;;;;;5054195;28;20029;-83
2021/03/11 18:26:13;;;;;;;30.05;14.85;;;-2.00;71.90;;;;;;5053723;28;20029;-84
2021/03/11 18:28:38;;;;;;;24.27;12.32;;;-2.00;72.50;;;;;;5054121;28;20074;-82
2021/03/11 18:31:04;;;;;;;24.90;13.05;;;-2.00;73.20;;;;;;5054025;28;20123;-85
2021/03/11 18:33:30;;;;;;;29.52;13.48;;;-2.10;72.50;;;;;;5055300;28;20103;-84
2021/03/11 18:35:55;;;;;;;28.08;14.80;;;-2.10;72.80;;;;;;5054584;28;20040;-84
2021/03/11 18:38:25;;;;;;;26.20;14.07;;;-2.10;73.40;;;;;;5055103;28;20033;-83
2021/03/11 18:40:52;;;;;;;32.80;17.20;;;-2.10;73.50;;;;;;5053858;28;20029;-84
2021/03/11 18:43:19;;;;;;;31.13;15.55;;;-2.10;74.10;;;;;;5053442;28;20051;-85
2021/03/11 18:45:44;;;;;;;35.28;17.58;;;-2.10;74.00;;;;;;5053739;28;20442;-83
2021/03/11 18:48:10;;;;;;;32.75;16.25;;;-2.10;74.20;;;;;;5054916;28;20104;-83
2021/03/11 18:50:37;;;;;;;29.15;14.63;;;-2.10;74.30;;;;;;5053721;28;20382;-83
2021/03/11 18:53:03;;;;;;;28.58;14.70;;;-2.20;74.90;;;;;;5054673;28;20470;-83
2021/03/11 18:55:29;;;;;;;27.38;13.23;;;-2.10;74.70;;;;;;5054764;28;20033;-83
2021/03/11 18:57:55;;;;;;;31.20;15.02;;;-2.10;75.00;;;;;;5054916;28;20031;-86
2021/03/11 19:00:38;;;;;;;26.45;13.43;;;-2.20;76.00;;;;;;5053696;28;20029;-84
2021/03/11 19:03:05;;;;;;;30.48;15.15;;;-2.20;75.70;;;;;;5054592;28;20021;-85
2021/03/11 19:05:31;;;;;;;27.83;13.18;;;-2.20;76.60;;;;;;5052339;28;20032;-86
2021/03/11 19:07:57;;;;;;;27.67;12.98;;;-2.20;76.00;;;;;;5054663;28;20029;-85
2021/03/11 19:10:25;;;;;;;28.67;13.45;;;-2.20;76.40;;;;;;5053552;28;20029;-85
2021/03/11 19:12:52;;;;;;;29.40;12.75;;;-2.30;77.40;;;;;;5053122;28;20523;-87
2021/03/11 19:15:19;;;;;;;24.75;12.85;;;-2.30;76.70;;;;;;5054608;28;20580;-86
2021/03/11 19:17:45;;;;;;;20.67;10.35;;;-2.30;77.00;;;;;;5053431;28;20440;-82
2021/03/11 19:20:15;;;;;;;24.52;12.70;;;-2.30;76.50;;;;;;5053215;28;20124;-87
2021/03/11 19:22:45;;;;;;;22.13;11.80;;;-2.40;77.20;;;;;;5053422;28;20078;-85
2021/03/11 19:25:12;;;;;;;20.52;9.82;;;-2.40;76.80;;;;;;5053900;28;20017;-88
2021/03/11 19:27:38;;;;;;;19.20;9.25;;;-2.40;76.60;;;;;;5053073;28;20169;-84
2021/03/11 19:30:07;;;;;;;21.98;9.93;;;-2.40;76.60;;;;;;5054102;28;20024;-83
2021/03/11 19:32:33;;;;;;;17.90;9.07;;;-2.40;77.20;;;;;;5052613;28;20035;-82
2021/03/11 19:34:59;;;;;;;17.40;9.15;;;-2.40;76.40;;;;;;5052598;28;20039;-82
2021/03/11 19:37:25;;;;;;;21.17;9.68;;;-2.40;76.40;;;;;;5052582;28;20031;-82
2021/03/11 19:39:51;;;;;;;16.35;8.43;;;-2.40;76.00;;;;;;5052424;28;20128;-82
2021/03/11 19:42:17;;;;;;;15.50;8.68;;;-2.40;75.90;;;;;;5053573;28;20064;-82
2021/03/11 19:44:42;;;;;;;16.17;8.65;;;-2.40;75.90;;;;;;5053891;28;20033;-82
2021/03/11 19:47:08;;;;;;;23.02;10.35;;;-2.40;75.90;;;;;;5053839;28;20097;-82
2021/03/11 19:49:34;;;;;;;18.98;9.73;;;-2.40;75.80;;;;;;5053515;28;20032;-81
2021/03/11 19:52:00;;;;;;;16.50;8.95;;;-2.50;76.10;;;;;;5053348;28;20064;-82
2021/03/11 19:54:25;;;;;;;19.35;8.13;;;-2.50;75.90;;;;;;5053687;28;20029;-82
2021/03/11 19:56:51;;;;;;;17.90;9.52;;;-2.50;75.90;;;;;;5053636;28;20074;-81
2021/03/11 19:59:17;;;;;;;16.60;8.80;;;-2.50;76.00;;;;;;5052867;28;20107;-81
2021/03/11 20:01:42;;;;;;;18.90;8.65;;;-2.50;76.10;;;;;;5053461;28;20359;-81
2021/03/11 20:04:08;;;;;;;19.38;9.85;;;-2.50;76.00;;;;;;5052192;28;20108;-81
2021/03/11 20:06:34;;;;;;;18.10;9.15;;;-2.50;76.10;;;;;;5053279;28;20411;-81
2021/03/11 20:09:00;;;;;;;42.40;10.25;;;-2.50;76.30;;;;;;5053439;28;20105;-77
2021/03/11 20:11:25;;;;;;;17.02;9.48;;;-2.50;76.40;;;;;;5053637;28;20021;-84
2021/03/11 20:13:51;;;;;;;18.05;9.13;;;-2.60;76.30;;;;;;5052240;28;20029;-84
2021/03/11 20:16:18;;;;;;;16.83;9.00;;;-2.60;76.50;;;;;;5052262;28;20052;-84
2021/03/11 20:18:44;;;;;;;18.63;8.50;;;-2.60;76.40;;;;;;5052079;28;20021;-84
2021/03/11 20:21:10;;;;;;;16.45;8.38;;;-2.60;76.60;;;;;;5053419;28;20107;-84
2021/03/11 20:23:37;;;;;;;18.00;9.57;;;-2.60;76.60;;;;;;5052112;28;20470;-84
2021/03/11 20:26:03;;;;;;;16.75;8.90;;;-2.70;76.60;;;;;;5052118;28;20110;-84
2021/03/11 20:28:30;;;;;;;19.23;9.38;;;-2.70;77.50;;;;;;5053397;28;20024;-84
2021/03/11 20:30:55;;;;;;;17.35;10.20;;;-2.70;77.20;;;;;;5052105;28;20025;-85
2021/03/11 20:33:21;;;;;;;21.40;10.02;;;-2.70;77.10;;;;;;5053617;28;20029;-85
2021/03/11 20:35:47;;;;;;;24.15;10.48;;;-2.70;76.90;;;;;;5053349;28;20033;-85
2021/03/11 20:38:13;;;;;;;25.88;10.10;;;-2.70;77.00;;;;;;5053525;28;20036;-85
2021/03/11 20:40:39;;;;;;;19.02;11.25;;;-2.70;77.50;;;;;;5053018;28;20517;-82
2021/03/11 20:43:05;;;;;;;19.15;9.57;;;-2.70;77.00;;;;;;5052856;28;20433;-82
2021/03/11 20:45:31;;;;;;;18.48;10.80;;;-2.80;77.30;;;;;;5052055;28;20021;-82
2021/03/11 20:47:59;;;;;;;22.50;11.45;;;-2.80;77.80;;;;;;5053063;28;20025;-82
2021/03/11 20:50:26;;;;;;;17.80;8.90;;;-2.80;77.60;;;;;;5051880;28;20032;-83
2021/03/11 20:52:54;;;;;;;21.55;10.20;;;-2.80;77.70;;;;;;5053285;28;20025;-82
2021/03/11 20:55:20;;;;;;;18.42;9.20;;;-2.80;77.90;;;;;;5053212;28;20105;-82
2021/03/11 20:57:45;;;;;;;17.05;8.80;;;-2.80;77.80;;;;;;5053067;28;20526;-81
2021/03/11 21:00:14;;;;;;;17.05;8.65;;;-2.80;77.90;;;;;;5053068;28;20021;-81
2021/03/11 21:02:40;;;;;;;17.88;8.80;;;-2.80;77.90;;;;;;5051786;28;20033;-82
2021/03/11 21:05:08;;;;;;;16.52;9.13;;;-2.90;78.10;;;;;;5053082;28;20078;-82
